createdAt,value
2019-03-03T00:01:09.288Z,5.50
2019-03-03T00:03:57.025Z,5.50
2019-03-03T00:06:44.985Z,5.50
2019-03-03T00:09:32.814Z,5.50
2019-03-03T00:12:20.576Z,5.50
2019-03-03T00:15:08.629Z,5.50
2019-03-03T00:17:56.619Z,5.50
2019-03-03T00:20:45.092Z,5.50
2019-03-03T00:23:32.995Z,5.40
2019-03-03T00:26:20.424Z,5.40
2019-03-03T00:29:08.393Z,5.40
2019-03-03T00:31:56.279Z,5.40
2019-03-03T00:34:44.018Z,5.30
2019-03-03T00:37:41.228Z,5.20
2019-03-03T00:40:47.937Z,5.20
2019-03-03T00:43:51.218Z,5.20
2019-03-03T00:47:00.604Z,5.20
2019-03-03T00:49:57.862Z,5.20
2019-03-03T00:53:03.332Z,5.20
2019-03-03T00:56:09.614Z,5.20
2019-03-03T00:59:20.376Z,5.20
2019-03-03T01:02:14.861Z,5.20
2019-03-03T01:05:18.286Z,5.20
2019-03-03T01:08:30.913Z,5.20
2019-03-03T01:11:34.888Z,5.30
2019-03-03T01:14:41.854Z,5.20
2019-03-03T01:17:38.716Z,5.30
2019-03-03T01:20:57.828Z,5.30
2019-03-03T01:23:56.523Z,5.20
2019-03-03T01:26:44.265Z,5.10
2019-03-03T01:29:31.925Z,5.10
2019-03-03T01:32:19.304Z,5.10
2019-03-03T01:35:07.698Z,5.20
2019-03-03T01:37:55.420Z,5.20
2019-03-03T01:40:43.225Z,5.20
2019-03-03T01:43:31.049Z,5.10
2019-03-03T01:46:18.686Z,5.10
2019-03-03T01:49:06.640Z,5.00
2019-03-03T01:51:54.677Z,5.00
2019-03-03T01:54:42.180Z,5.00
2019-03-03T01:57:30.313Z,5.00
2019-03-03T02:00:21.238Z,5.10
2019-03-03T02:03:09.126Z,5.10
2019-03-03T02:05:56.723Z,5.10
2019-03-03T02:08:44.656Z,5.10
2019-03-03T02:11:32.794Z,5.00
2019-03-03T02:14:20.496Z,4.90
2019-03-03T02:17:09.301Z,5.00
2019-03-03T02:19:56.753Z,5.00
2019-03-03T02:22:44.546Z,5.00
2019-03-03T02:25:32.732Z,5.00
2019-03-03T02:28:20.330Z,5.10
2019-03-03T02:31:07.790Z,5.10
2019-03-03T02:33:55.821Z,5.00
2019-03-03T02:36:43.614Z,5.00
2019-03-03T02:39:31.447Z,5.00
2019-03-03T02:42:19.081Z,5.10
2019-03-03T02:45:07.444Z,5.20
2019-03-03T02:47:55.137Z,5.30
2019-03-03T02:50:42.585Z,5.40
2019-03-03T02:53:29.906Z,5.40
2019-03-03T02:56:18.148Z,5.40
2019-03-03T02:59:06.131Z,5.50
2019-03-03T03:02:02.854Z,5.50
2019-03-03T03:04:50.699Z,5.50
2019-03-03T03:07:51.721Z,5.50
2019-03-03T03:11:13.877Z,5.50
2019-03-03T03:14:17.189Z,5.50
2019-03-03T03:17:24.902Z,5.60
2019-03-03T03:20:20.411Z,5.60
2019-03-03T03:23:30.283Z,5.60
2019-03-03T03:26:29.891Z,5.60
2019-03-03T03:29:26.717Z,5.60
2019-03-03T03:32:19.574Z,5.60
2019-03-03T03:35:12.969Z,5.50
2019-03-03T03:38:25.638Z,5.50
2019-03-03T03:41:32.787Z,5.40
2019-03-03T03:44:26.816Z,5.40
2019-03-03T03:47:25.872Z,5.40
2019-03-03T03:50:23.435Z,5.40
2019-03-03T03:53:42.623Z,5.30
2019-03-03T03:56:48.444Z,5.30
2019-03-03T03:59:48.222Z,5.30
2019-03-03T04:02:54.083Z,5.10
2019-03-03T04:05:52.269Z,5.10
2019-03-03T04:09:05.376Z,5.10
2019-03-03T04:12:30.668Z,5.10
2019-03-03T04:15:32.775Z,5.10
2019-03-03T04:18:35.929Z,5.20
2019-03-03T04:21:45.604Z,5.20
2019-03-03T04:25:01.670Z,5.20
2019-03-03T04:28:08.156Z,5.30
2019-03-03T04:31:10.882Z,5.30
2019-03-03T04:34:09.027Z,5.40
2019-03-03T04:37:15.690Z,5.40
2019-03-03T04:40:11.223Z,5.50
2019-03-03T04:43:21.453Z,5.50
2019-03-03T04:46:24.291Z,5.60
2019-03-03T04:49:26.125Z,5.60
2019-03-03T04:52:34.647Z,5.60
2019-03-03T04:55:56.987Z,5.70
2019-03-03T04:58:53.956Z,5.70
2019-03-03T05:01:59.555Z,5.70
2019-03-03T05:04:55.928Z,5.80
2019-03-03T05:07:58.405Z,5.80
2019-03-03T05:11:07.860Z,5.80
2019-03-03T05:14:03.977Z,5.80
2019-03-03T05:16:59.178Z,5.70
2019-03-03T05:19:51.538Z,5.60
2019-03-03T05:22:39.598Z,5.50
2019-03-03T05:25:27.527Z,5.50
2019-03-03T05:28:15.201Z,5.60
2019-03-03T05:31:02.581Z,5.70
2019-03-03T05:33:50.308Z,5.70
2019-03-03T05:36:37.869Z,5.70
2019-03-03T05:39:25.693Z,5.70
2019-03-03T05:42:13.689Z,5.70
2019-03-03T05:45:01.366Z,5.70
2019-03-03T05:47:49.101Z,5.60
2019-03-03T05:50:36.712Z,5.60
2019-03-03T05:53:24.058Z,5.50
2019-03-03T05:56:11.914Z,5.40
2019-03-03T05:58:59.613Z,5.30
2019-03-03T06:01:47.645Z,5.20
2019-03-03T06:04:34.987Z,5.10
2019-03-03T06:07:22.608Z,5.10
2019-03-03T06:10:10.856Z,5.00
2019-03-03T06:12:58.806Z,5.00
2019-03-03T06:15:46.645Z,4.90
2019-03-03T06:18:34.569Z,4.80
2019-03-03T06:21:22.189Z,4.80
2019-03-03T06:24:09.775Z,4.70
2019-03-03T06:26:57.649Z,4.70
2019-03-03T06:29:45.678Z,4.70
2019-03-03T06:32:33.377Z,4.70
2019-03-03T06:35:21.473Z,4.40
2019-03-03T06:38:09.345Z,4.40
2019-03-03T06:40:57.480Z,4.40
2019-03-03T06:43:45.612Z,4.40
2019-03-03T06:46:33.363Z,4.40
2019-03-03T06:49:21.340Z,4.20
2019-03-03T06:52:09.483Z,4.10
2019-03-03T06:54:56.745Z,4.20
2019-03-03T06:57:44.218Z,4.30
2019-03-03T07:00:31.658Z,4.40
2019-03-03T07:03:19.686Z,4.30
2019-03-03T07:06:07.643Z,4.30
2019-03-03T07:08:55.309Z,4.50
2019-03-03T07:11:42.725Z,4.70
2019-03-03T07:14:30.437Z,4.80
2019-03-03T07:17:18.212Z,5.00
2019-03-03T07:20:07.044Z,5.10
2019-03-03T07:22:55.024Z,5.20
2019-03-03T07:25:46.020Z,5.30
2019-03-03T07:28:33.619Z,5.40
2019-03-03T07:31:21.320Z,5.60
2019-03-03T07:34:08.872Z,5.60
2019-03-03T07:36:56.603Z,5.60
2019-03-03T07:39:44.315Z,5.80
2019-03-03T07:42:31.698Z,5.80
2019-03-03T07:45:19.103Z,5.80
2019-03-03T07:48:07.307Z,5.80
2019-03-03T07:50:55.369Z,5.90
2019-03-03T07:53:43.290Z,6.00
2019-03-03T07:56:30.842Z,6.20
2019-03-03T07:59:18.764Z,6.30
2019-03-03T08:02:06.744Z,6.50
2019-03-03T08:04:54.730Z,6.60
2019-03-03T08:07:43.541Z,6.60
2019-03-03T08:10:31.558Z,6.80
2019-03-03T08:13:19.276Z,6.90
2019-03-03T08:16:07.299Z,7.10
2019-03-03T08:18:55.159Z,7.30
2019-03-03T08:21:43.308Z,7.50
2019-03-03T08:24:31.178Z,7.70
2019-03-03T08:27:19.251Z,7.90
2019-03-03T08:30:08.120Z,7.90
2019-03-03T08:32:55.820Z,8.00
2019-03-03T08:35:43.817Z,8.10
2019-03-03T08:38:31.801Z,8.30
2019-03-03T08:41:19.542Z,8.40
2019-03-03T08:44:11.313Z,8.40
2019-03-03T08:47:08.623Z,8.50
2019-03-03T08:50:06.575Z,8.50
2019-03-03T08:53:11.753Z,8.50
2019-03-03T08:56:17.671Z,8.50
2019-03-03T08:59:12.923Z,8.60
2019-03-03T09:02:11.347Z,8.60
2019-03-03T09:05:05.714Z,8.80
2019-03-03T09:08:14.688Z,9.00
2019-03-03T09:11:21.558Z,9.10
2019-03-03T09:14:27.773Z,9.20
2019-03-03T09:17:41.012Z,9.20
2019-03-03T09:20:43.352Z,9.30
2019-03-03T09:23:59.648Z,9.40
2019-03-03T09:27:06.004Z,9.50
2019-03-03T09:30:15.914Z,9.60
2019-03-03T09:33:21.333Z,9.80
2019-03-03T09:36:43.398Z,9.90
2019-03-03T09:39:40.281Z,10.20
2019-03-03T09:42:38.786Z,10.30
2019-03-03T09:45:50.455Z,10.40
2019-03-03T09:48:55.874Z,10.20
2019-03-03T09:51:58.379Z,10.20
2019-03-03T09:55:04.619Z,10.30
2019-03-03T09:58:17.428Z,10.50
2019-03-03T10:01:24.600Z,10.50
2019-03-03T10:04:22.101Z,10.50
2019-03-03T10:07:21.329Z,10.50
2019-03-03T10:10:26.869Z,10.60
2019-03-03T10:13:21.102Z,10.70
2019-03-03T10:16:25.851Z,10.90
2019-03-03T10:19:31.852Z,10.90
2019-03-03T10:22:41.304Z,10.90
2019-03-03T10:25:48.092Z,10.90
2019-03-03T10:28:46.845Z,11.00
2019-03-03T10:31:42.863Z,11.20
2019-03-03T10:34:52.996Z,11.30
2019-03-03T10:38:02.797Z,11.60
2019-03-03T10:41:25.174Z,11.90
2019-03-03T10:44:31.024Z,12.10
2019-03-03T10:47:34.376Z,12.00
2019-03-03T10:50:43.025Z,12.10
2019-03-03T10:53:52.221Z,12.20
2019-03-03T10:57:02.234Z,12.30
2019-03-03T11:00:21.154Z,12.40
2019-03-03T11:03:27.919Z,12.40
2019-03-03T11:06:24.165Z,12.40
2019-03-03T11:09:40.631Z,12.50
2019-03-03T11:12:37.863Z,12.60
2019-03-03T11:15:50.536Z,12.60
2019-03-03T11:18:56.381Z,12.70
2019-03-03T11:21:55.516Z,12.90
2019-03-03T11:25:00.589Z,13.00
2019-03-03T11:28:06.898Z,12.90
2019-03-03T11:31:07.284Z,12.90
2019-03-03T11:34:17.983Z,12.90
2019-03-03T11:37:14.110Z,13.00
2019-03-03T11:40:18.245Z,13.20
2019-03-03T11:43:25.767Z,13.40
2019-03-03T11:46:32.791Z,13.50
2019-03-03T11:49:28.985Z,13.70
2019-03-03T11:52:41.985Z,13.70
2019-03-03T11:55:46.908Z,13.50
2019-03-03T11:58:52.476Z,13.20
2019-03-03T12:01:58.333Z,13.10
2019-03-03T12:05:05.700Z,13.10
2019-03-03T12:08:30.938Z,13.20
2019-03-03T12:11:36.116Z,13.30
2019-03-03T12:14:41.596Z,13.50
2019-03-03T12:17:51.041Z,13.50
2019-03-03T12:21:03.898Z,13.60
2019-03-03T12:23:57.841Z,13.60
2019-03-03T12:27:20.154Z,13.80
2019-03-03T12:30:26.162Z,13.90
2019-03-03T12:33:21.988Z,14.10
2019-03-03T12:36:27.815Z,14.20
2019-03-03T12:39:23.785Z,14.00
2019-03-03T12:42:29.151Z,13.90
2019-03-03T12:45:38.867Z,13.90
2019-03-03T12:48:46.003Z,13.90
2019-03-03T12:51:53.083Z,13.80
2019-03-03T12:54:53.684Z,13.80
2019-03-03T12:57:51.913Z,14.00
2019-03-03T13:00:51.478Z,14.00
2019-03-03T13:03:53.668Z,14.20
2019-03-03T13:07:18.962Z,14.40
2019-03-03T13:10:23.400Z,14.50
2019-03-03T13:13:29.049Z,14.60
2019-03-03T13:16:51.088Z,14.70
2019-03-03T13:19:56.685Z,14.80
2019-03-03T13:22:51.320Z,15.10
2019-03-03T13:26:13.862Z,15.10
2019-03-03T13:29:26.765Z,15.10
2019-03-03T13:32:32.685Z,15.10
2019-03-03T13:35:42.556Z,15.20
2019-03-03T13:39:07.785Z,15.50
2019-03-03T13:42:11.545Z,15.70
2019-03-03T13:44:59.194Z,15.60
2019-03-03T13:47:46.793Z,15.20
2019-03-03T13:50:35.261Z,14.80
2019-03-03T13:53:23.273Z,14.80
2019-03-03T13:56:11.042Z,14.80
2019-03-03T13:58:58.665Z,14.70
2019-03-03T14:01:46.674Z,14.70
2019-03-03T14:04:34.650Z,14.80
2019-03-03T14:07:22.645Z,14.70
2019-03-03T14:10:10.680Z,14.70
2019-03-03T14:12:58.715Z,14.70
2019-03-03T14:15:46.527Z,14.70
2019-03-03T14:18:34.364Z,14.70
2019-03-03T14:21:22.447Z,14.70
2019-03-03T14:24:10.206Z,14.80
2019-03-03T14:26:57.745Z,14.80
2019-03-03T14:29:45.209Z,14.80
2019-03-03T14:32:32.889Z,14.70
2019-03-03T14:35:20.842Z,14.60
2019-03-03T14:38:08.658Z,14.60
2019-03-03T14:40:56.673Z,14.60
2019-03-03T14:43:44.517Z,14.60
2019-03-03T14:46:32.230Z,14.50
2019-03-03T14:49:19.887Z,14.50
2019-03-03T14:52:08.025Z,14.40
2019-03-03T14:54:55.666Z,14.40
2019-03-03T14:57:43.805Z,14.30
2019-03-03T15:00:33.708Z,14.30
2019-03-03T15:03:21.806Z,14.10
2019-03-03T15:06:09.742Z,14.00
2019-03-03T15:08:57.895Z,14.00
2019-03-03T15:11:45.726Z,14.00
2019-03-03T15:14:33.496Z,13.90
2019-03-03T15:17:22.375Z,13.90
2019-03-03T15:20:10.472Z,13.90
2019-03-03T15:22:58.178Z,13.90
2019-03-03T15:25:46.295Z,13.80
2019-03-03T15:28:34.478Z,13.80
2019-03-03T15:31:22.499Z,13.80
2019-03-03T15:34:10.359Z,13.70
2019-03-03T15:36:58.083Z,13.70
2019-03-03T15:39:46.051Z,13.60
2019-03-03T15:42:34.112Z,13.60
2019-03-03T15:45:24.311Z,13.50
2019-03-03T15:48:15.806Z,13.50
2019-03-03T15:51:03.393Z,13.50
2019-03-03T15:53:51.271Z,13.50
2019-03-03T15:56:39.217Z,13.50
2019-03-03T15:59:26.901Z,13.50
2019-03-03T16:02:14.948Z,13.50
2019-03-03T16:05:02.704Z,13.40
2019-03-03T16:07:50.946Z,13.40
2019-03-03T16:10:38.866Z,13.40
2019-03-03T16:13:26.758Z,13.40
2019-03-03T16:16:14.747Z,13.30
2019-03-03T16:19:02.977Z,13.20
2019-03-03T16:21:50.601Z,13.10
2019-03-03T16:24:38.036Z,12.90
2019-03-03T16:27:25.871Z,12.80
2019-03-03T16:30:17.768Z,12.60
2019-03-03T16:33:05.117Z,12.50
2019-03-03T16:35:52.501Z,12.40
2019-03-03T16:38:40.357Z,12.20
2019-03-03T16:41:27.976Z,12.20
2019-03-03T16:44:16.009Z,12.20
2019-03-03T16:47:03.994Z,12.20
2019-03-03T16:49:51.420Z,12.20
2019-03-03T16:52:39.156Z,12.20
2019-03-03T16:55:26.985Z,12.10
2019-03-03T16:58:14.684Z,12.00
2019-03-03T17:01:02.753Z,11.90
2019-03-03T17:03:50.608Z,11.70
2019-03-03T17:06:39.260Z,11.70
2019-03-03T17:09:28.362Z,11.70
2019-03-03T17:12:17.543Z,11.70
2019-03-03T17:15:10.069Z,11.70
2019-03-03T17:18:04.824Z,11.70
2019-03-03T17:20:52.490Z,11.70
2019-03-03T17:23:40.081Z,11.70
2019-03-03T17:26:28.144Z,11.70
2019-03-03T17:29:15.843Z,11.70
2019-03-03T17:32:03.304Z,11.70
2019-03-03T17:34:51.209Z,11.60
2019-03-03T17:37:39.064Z,11.50
2019-03-03T17:40:27.051Z,11.40
2019-03-03T17:43:14.445Z,11.30
2019-03-03T17:46:02.641Z,11.10
2019-03-03T17:48:50.328Z,10.90
2019-03-03T17:51:37.890Z,10.70
2019-03-03T17:54:26.163Z,10.50
2019-03-03T17:57:13.814Z,10.30
2019-03-03T18:00:01.592Z,10.20
2019-03-03T18:02:49.262Z,10.10
2019-03-03T18:05:36.935Z,10.00
2019-03-03T18:08:24.618Z,9.90
2019-03-03T18:11:12.257Z,9.70
2019-03-03T18:13:59.853Z,9.60
2019-03-03T18:16:47.472Z,9.60
2019-03-03T18:19:35.442Z,9.60
2019-03-03T18:22:23.460Z,9.70
2019-03-03T18:25:12.247Z,9.70
2019-03-03T18:28:00.031Z,9.60
2019-03-03T18:30:47.898Z,9.50
2019-03-03T18:33:35.499Z,9.60
2019-03-03T18:36:23.317Z,9.60
2019-03-03T18:39:11.088Z,9.60
2019-03-03T18:41:58.536Z,9.50
2019-03-03T18:44:46.356Z,9.50
2019-03-03T18:47:34.358Z,9.40
2019-03-03T18:50:22.080Z,9.40
2019-03-03T18:53:10.937Z,9.30
2019-03-03T18:55:58.633Z,9.30
2019-03-03T18:58:45.960Z,9.40
2019-03-03T19:01:33.324Z,9.40
2019-03-03T19:04:21.241Z,9.40
2019-03-03T19:07:08.797Z,9.40
2019-03-03T19:09:56.070Z,9.40
2019-03-03T19:12:44.176Z,9.40
2019-03-03T19:15:33.321Z,9.30
2019-03-03T19:18:20.818Z,9.20
2019-03-03T19:21:08.927Z,9.10
2019-03-03T19:23:56.670Z,9.10
2019-03-03T19:26:44.087Z,9.00
2019-03-03T19:29:31.737Z,9.00
2019-03-03T19:32:19.709Z,8.90
2019-03-03T19:35:08.217Z,8.70
2019-03-03T19:37:56.424Z,8.70
2019-03-03T19:40:44.233Z,8.70
2019-03-03T19:43:31.999Z,8.30
2019-03-03T19:46:20.388Z,8.10
2019-03-03T19:49:08.234Z,8.00
2019-03-03T19:51:55.969Z,8.00
2019-03-03T19:54:43.663Z,8.00
2019-03-03T19:57:31.077Z,8.00
2019-03-03T20:00:21.405Z,8.00
2019-03-03T20:03:09.473Z,8.00
2019-03-03T20:05:57.709Z,8.00
2019-03-03T20:08:45.790Z,7.90
2019-03-03T20:11:33.535Z,7.90
2019-03-03T20:14:20.905Z,7.80
2019-03-03T20:17:08.333Z,7.70
2019-03-03T20:19:56.058Z,7.60
2019-03-03T20:22:44.877Z,7.50
2019-03-03T20:25:32.645Z,7.40
2019-03-03T20:28:20.515Z,7.30
2019-03-03T20:31:08.269Z,7.20
2019-03-03T20:33:56.029Z,7.30
2019-03-03T20:36:43.424Z,7.20
2019-03-03T20:39:31.445Z,7.10
2019-03-03T20:42:19.182Z,7.00
2019-03-03T20:45:08.953Z,7.00
2019-03-03T20:47:57.159Z,7.00
2019-03-03T20:50:44.737Z,6.80
2019-03-03T20:53:32.666Z,6.50
2019-03-03T20:56:20.281Z,6.30
2019-03-03T20:59:07.727Z,6.30
2019-03-03T21:01:55.488Z,6.30
2019-03-03T21:04:43.318Z,6.30
2019-03-03T21:07:31.080Z,6.30
2019-03-03T21:10:20.314Z,6.40
2019-03-03T21:13:08.170Z,6.40
2019-03-03T21:15:55.722Z,6.40
2019-03-03T21:18:43.170Z,6.40
2019-03-03T21:21:31.169Z,6.50
2019-03-03T21:24:18.759Z,6.50
2019-03-03T21:27:06.067Z,6.50
2019-03-03T21:29:53.324Z,6.50
2019-03-03T21:32:40.597Z,6.40
2019-03-03T21:35:28.343Z,6.20
2019-03-03T21:38:15.941Z,6.10
2019-03-03T21:41:03.203Z,6.00
2019-03-03T21:43:51.202Z,6.10
2019-03-03T21:46:38.625Z,6.10
2019-03-03T21:49:26.245Z,6.10
2019-03-03T21:52:13.755Z,6.10
2019-03-03T21:55:01.265Z,6.10
2019-03-03T21:57:48.560Z,6.10
2019-03-03T22:00:38.281Z,6.00
2019-03-03T22:03:25.879Z,6.00
2019-03-03T22:06:13.834Z,5.90
2019-03-03T22:09:04.675Z,5.80
2019-03-03T22:11:53.699Z,5.80
2019-03-03T22:14:42.877Z,5.90
2019-03-03T22:17:36.801Z,5.80
2019-03-03T22:20:24.852Z,5.90
2019-03-03T22:23:12.692Z,5.90
2019-03-03T22:26:01.989Z,5.90
2019-03-03T22:28:52.319Z,6.00
2019-03-03T22:31:40.660Z,6.10
2019-03-03T22:34:28.637Z,6.10
2019-03-03T22:37:17.902Z,6.20
2019-03-03T22:40:12.366Z,6.30
2019-03-03T22:43:01.427Z,6.30
2019-03-03T22:45:52.913Z,6.40
2019-03-03T22:48:40.872Z,6.50
2019-03-03T22:51:30.400Z,6.50
2019-03-03T22:54:18.187Z,6.50
2019-03-03T22:57:06.211Z,6.50
2019-03-03T22:59:53.854Z,6.50
2019-03-03T23:02:42.124Z,6.50
2019-03-03T23:05:41.244Z,6.50
2019-03-03T23:08:47.286Z,6.50
2019-03-03T23:12:05.211Z,6.40
2019-03-03T23:15:05.776Z,6.40
2019-03-03T23:18:15.684Z,6.40
2019-03-03T23:21:41.488Z,6.20
2019-03-03T23:24:57.646Z,6.20
2019-03-03T23:27:45.424Z,6.10
2019-03-03T23:30:33.378Z,6.10
2019-03-03T23:33:21.581Z,6.10
2019-03-03T23:36:09.292Z,6.10
2019-03-03T23:38:57.871Z,6.20
2019-03-03T23:41:45.709Z,6.10
2019-03-03T23:44:37.810Z,6.10
2019-03-03T23:47:25.845Z,6.10
2019-03-03T23:50:13.692Z,6.20
2019-03-03T23:53:01.767Z,6.20
2019-03-03T23:55:50.428Z,6.30
2019-03-03T23:58:38.272Z,6.20
